sensor_id;sensor_type;location;lat;lon;timestamp;P1;durP1;ratioP1;P2;durP2;ratioP2
13345;SDS011;6742;48.036;15.780;2024-01-07T00:01:32;1.40;;;1.13;;
13345;SDS011;6742;48.036;15.780;2024-01-07T00:04:00;1.20;;;1.07;;
13345;SDS011;6742;48.036;15.780;2024-01-07T00:06:27;1.30;;;1.20;;
13345;SDS011;6742;48.036;15.780;2024-01-07T00:08:54;1.30;;;1.20;;
13345;SDS011;6742;48.036;15.780;2024-01-07T00:11:21;1.30;;;1.00;;
13345;SDS011;6742;48.036;15.780;2024-01-07T00:13:49;1.53;;;1.10;;
13345;SDS011;6742;48.036;15.780;2024-01-07T00:16:16;1.03;;;0.90;;
13345;SDS011;6742;48.036;15.780;2024-01-07T00:18:43;1.07;;;1.00;;
13345;SDS011;6742;48.036;15.780;2024-01-07T00:21:11;1.33;;;1.20;;
13345;SDS011;6742;48.036;15.780;2024-01-07T00:23:38;1.20;;;1.10;;
13345;SDS011;6742;48.036;15.780;2024-01-07T00:26:05;1.20;;;1.10;;
13345;SDS011;6742;48.036;15.780;2024-01-07T00:28:32;1.40;;;1.00;;
13345;SDS011;6742;48.036;15.780;2024-01-07T00:30:59;0.87;;;0.87;;
13345;SDS011;6742;48.036;15.780;2024-01-07T00:33:26;1.30;;;1.03;;
13345;SDS011;6742;48.036;15.780;2024-01-07T00:35:53;1.10;;;1.00;;
13345;SDS011;6742;48.036;15.780;2024-01-07T00:38:21;1.10;;;1.00;;
13345;SDS011;6742;48.036;15.780;2024-01-07T00:40:48;1.30;;;1.07;;
13345;SDS011;6742;48.036;15.780;2024-01-07T00:43:15;1.20;;;1.10;;
13345;SDS011;6742;48.036;15.780;2024-01-07T00:45:43;1.50;;;1.40;;
13345;SDS011;6742;48.036;15.780;2024-01-07T00:48:10;1.50;;;1.40;;
13345;SDS011;6742;48.036;15.780;2024-01-07T00:50:37;1.30;;;1.20;;
13345;SDS011;6742;48.036;15.780;2024-01-07T00:53:04;1.20;;;1.10;;
13345;SDS011;6742;48.036;15.780;2024-01-07T00:55:33;4.63;;;1.23;;
13345;SDS011;6742;48.036;15.780;2024-01-07T00:58:00;1.30;;;1.20;;
13345;SDS011;6742;48.036;15.780;2024-01-07T01:00:27;1.20;;;1.10;;
13345;SDS011;6742;48.036;15.780;2024-01-07T01:02:54;1.37;;;1.23;;
13345;SDS011;6742;48.036;15.780;2024-01-07T01:05:22;1.13;;;1.03;;
13345;SDS011;6742;48.036;15.780;2024-01-07T01:07:49;1.00;;;1.00;;
13345;SDS011;6742;48.036;15.780;2024-01-07T01:10:17;1.20;;;1.10;;
13345;SDS011;6742;48.036;15.780;2024-01-07T01:12:45;1.00;;;0.90;;
13345;SDS011;6742;48.036;15.780;2024-01-07T01:15:12;1.10;;;1.00;;
13345;SDS011;6742;48.036;15.780;2024-01-07T01:17:41;1.00;;;0.90;;
13345;SDS011;6742;48.036;15.780;2024-01-07T01:20:08;1.17;;;1.07;;
13345;SDS011;6742;48.036;15.780;2024-01-07T01:22:36;0.90;;;0.90;;
13345;SDS011;6742;48.036;15.780;2024-01-07T01:25:03;0.90;;;0.90;;
13345;SDS011;6742;48.036;15.780;2024-01-07T01:27:31;0.97;;;0.90;;
13345;SDS011;6742;48.036;15.780;2024-01-07T01:29:59;2.80;;;1.20;;
13345;SDS011;6742;48.036;15.780;2024-01-07T01:32:26;1.10;;;1.00;;
13345;SDS011;6742;48.036;15.780;2024-01-07T01:34:53;1.10;;;1.00;;
13345;SDS011;6742;48.036;15.780;2024-01-07T01:37:20;0.90;;;0.90;;
13345;SDS011;6742;48.036;15.780;2024-01-07T01:39:47;1.50;;;1.30;;
13345;SDS011;6742;48.036;15.780;2024-01-07T01:42:14;0.90;;;0.90;;
13345;SDS011;6742;48.036;15.780;2024-01-07T01:44:41;1.10;;;1.00;;
13345;SDS011;6742;48.036;15.780;2024-01-07T01:47:09;1.00;;;0.90;;
13345;SDS011;6742;48.036;15.780;2024-01-07T01:49:39;1.03;;;1.00;;
13345;SDS011;6742;48.036;15.780;2024-01-07T01:52:06;0.80;;;0.80;;
13345;SDS011;6742;48.036;15.780;2024-01-07T01:54:34;1.03;;;0.93;;
13345;SDS011;6742;48.036;15.780;2024-01-07T01:57:02;1.20;;;0.80;;
13345;SDS011;6742;48.036;15.780;2024-01-07T01:59:29;1.00;;;0.90;;
13345;SDS011;6742;48.036;15.780;2024-01-07T02:01:58;0.90;;;0.90;;
13345;SDS011;6742;48.036;15.780;2024-01-07T02:04:26;0.90;;;0.80;;
13345;SDS011;6742;48.036;15.780;2024-01-07T02:06:54;0.80;;;0.80;;
13345;SDS011;6742;48.036;15.780;2024-01-07T02:09:21;1.03;;;1.00;;
13345;SDS011;6742;48.036;15.780;2024-01-07T02:11:59;1.10;;;1.07;;
13345;SDS011;6742;48.036;15.780;2024-01-07T02:14:27;1.00;;;1.00;;
13345;SDS011;6742;48.036;15.780;2024-01-07T02:16:54;0.97;;;0.90;;
13345;SDS011;6742;48.036;15.780;2024-01-07T02:19:21;1.13;;;1.03;;
13345;SDS011;6742;48.036;15.780;2024-01-07T02:21:50;1.57;;;1.47;;
13345;SDS011;6742;48.036;15.780;2024-01-07T02:24:19;1.90;;;1.73;;
13345;SDS011;6742;48.036;15.780;2024-01-07T02:26:46;1.97;;;1.80;;
13345;SDS011;6742;48.036;15.780;2024-01-07T02:29:13;1.50;;;1.40;;
13345;SDS011;6742;48.036;15.780;2024-01-07T02:31:40;1.90;;;1.80;;
13345;SDS011;6742;48.036;15.780;2024-01-07T02:34:08;1.80;;;1.60;;
13345;SDS011;6742;48.036;15.780;2024-01-07T02:36:38;1.70;;;1.50;;
13345;SDS011;6742;48.036;15.780;2024-01-07T02:39:05;1.70;;;1.60;;
13345;SDS011;6742;48.036;15.780;2024-01-07T02:41:33;2.20;;;2.00;;
13345;SDS011;6742;48.036;15.780;2024-01-07T02:44:00;2.20;;;2.00;;
13345;SDS011;6742;48.036;15.780;2024-01-07T02:46:27;2.63;;;1.90;;
13345;SDS011;6742;48.036;15.780;2024-01-07T02:48:54;2.53;;;2.23;;
13345;SDS011;6742;48.036;15.780;2024-01-07T02:51:21;2.13;;;1.93;;
13345;SDS011;6742;48.036;15.780;2024-01-07T02:53:48;2.10;;;1.90;;
13345;SDS011;6742;48.036;15.780;2024-01-07T02:56:15;2.10;;;2.00;;
13345;SDS011;6742;48.036;15.780;2024-01-07T02:58:43;2.33;;;1.70;;
13345;SDS011;6742;48.036;15.780;2024-01-07T03:01:10;1.60;;;1.50;;
13345;SDS011;6742;48.036;15.780;2024-01-07T03:03:38;1.47;;;1.37;;
13345;SDS011;6742;48.036;15.780;2024-01-07T03:06:04;1.60;;;1.50;;
13345;SDS011;6742;48.036;15.780;2024-01-07T03:08:31;1.60;;;1.50;;
13345;SDS011;6742;48.036;15.780;2024-01-07T03:10:58;1.87;;;1.77;;
13345;SDS011;6742;48.036;15.780;2024-01-07T03:13:31;2.03;;;1.80;;
13345;SDS011;6742;48.036;15.780;2024-01-07T03:15:59;1.60;;;1.50;;
13345;SDS011;6742;48.036;15.780;2024-01-07T03:18:27;1.60;;;1.50;;
13345;SDS011;6742;48.036;15.780;2024-01-07T03:20:54;1.93;;;1.80;;
13345;SDS011;6742;48.036;15.780;2024-01-07T03:23:21;2.17;;;1.97;;
13345;SDS011;6742;48.036;15.780;2024-01-07T03:25:47;2.90;;;2.60;;
13345;SDS011;6742;48.036;15.780;2024-01-07T03:28:14;2.60;;;2.40;;
13345;SDS011;6742;48.036;15.780;2024-01-07T03:30:41;3.50;;;2.70;;
13345;SDS011;6742;48.036;15.780;2024-01-07T03:33:09;3.50;;;3.20;;
13345;SDS011;6742;48.036;15.780;2024-01-07T03:35:36;3.63;;;3.00;;
13345;SDS011;6742;48.036;15.780;2024-01-07T03:38:03;3.57;;;3.07;;
13345;SDS011;6742;48.036;15.780;2024-01-07T03:40:30;4.03;;;3.53;;
13345;SDS011;6742;48.036;15.780;2024-01-07T03:42:57;6.10;;;3.57;;
13345;SDS011;6742;48.036;15.780;2024-01-07T03:45:24;3.70;;;3.30;;
13345;SDS011;6742;48.036;15.780;2024-01-07T03:47:51;17.90;;;12.13;;
13345;SDS011;6742;48.036;15.780;2024-01-07T03:50:20;5.70;;;4.90;;
13345;SDS011;6742;48.036;15.780;2024-01-07T03:52:47;4.70;;;4.03;;
13345;SDS011;6742;48.036;15.780;2024-01-07T03:55:13;3.77;;;3.30;;
13345;SDS011;6742;48.036;15.780;2024-01-07T03:57:40;4.70;;;3.63;;
13345;SDS011;6742;48.036;15.780;2024-01-07T04:00:08;4.30;;;3.63;;
13345;SDS011;6742;48.036;15.780;2024-01-07T04:02:35;4.73;;;3.70;;
13345;SDS011;6742;48.036;15.780;2024-01-07T04:05:03;4.37;;;3.97;;
13345;SDS011;6742;48.036;15.780;2024-01-07T04:07:32;4.00;;;3.60;;
13345;SDS011;6742;48.036;15.780;2024-01-07T04:09:58;4.80;;;4.00;;
13345;SDS011;6742;48.036;15.780;2024-01-07T04:12:25;4.10;;;3.70;;
13345;SDS011;6742;48.036;15.780;2024-01-07T04:14:52;4.83;;;4.20;;
13345;SDS011;6742;48.036;15.780;2024-01-07T04:17:19;4.63;;;4.07;;
13345;SDS011;6742;48.036;15.780;2024-01-07T04:19:46;5.10;;;4.10;;
13345;SDS011;6742;48.036;15.780;2024-01-07T04:22:13;4.87;;;3.60;;
13345;SDS011;6742;48.036;15.780;2024-01-07T04:24:41;4.57;;;4.00;;
13345;SDS011;6742;48.036;15.780;2024-01-07T04:27:08;4.53;;;3.70;;
13345;SDS011;6742;48.036;15.780;2024-01-07T04:29:35;5.17;;;3.73;;
13345;SDS011;6742;48.036;15.780;2024-01-07T04:32:02;5.63;;;4.37;;
13345;SDS011;6742;48.036;15.780;2024-01-07T04:34:29;4.63;;;3.83;;
13345;SDS011;6742;48.036;15.780;2024-01-07T04:36:56;4.00;;;3.60;;
13345;SDS011;6742;48.036;15.780;2024-01-07T04:39:23;4.17;;;3.77;;
13345;SDS011;6742;48.036;15.780;2024-01-07T04:41:52;4.40;;;3.83;;
13345;SDS011;6742;48.036;15.780;2024-01-07T04:44:19;5.50;;;3.97;;
13345;SDS011;6742;48.036;15.780;2024-01-07T04:46:47;5.97;;;5.00;;
13345;SDS011;6742;48.036;15.780;2024-01-07T04:49:14;4.50;;;4.07;;
13345;SDS011;6742;48.036;15.780;2024-01-07T04:51:41;4.40;;;4.00;;
13345;SDS011;6742;48.036;15.780;2024-01-07T04:54:08;4.90;;;3.83;;
13345;SDS011;6742;48.036;15.780;2024-01-07T04:56:35;5.20;;;4.20;;
13345;SDS011;6742;48.036;15.780;2024-01-07T04:59:03;5.03;;;3.80;;
13345;SDS011;6742;48.036;15.780;2024-01-07T05:01:32;5.23;;;4.20;;
13345;SDS011;6742;48.036;15.780;2024-01-07T05:03:59;4.80;;;3.60;;
13345;SDS011;6742;48.036;15.780;2024-01-07T05:06:26;5.60;;;4.23;;
13345;SDS011;6742;48.036;15.780;2024-01-07T05:08:52;5.33;;;4.40;;
13345;SDS011;6742;48.036;15.780;2024-01-07T05:11:19;5.60;;;4.60;;
13345;SDS011;6742;48.036;15.780;2024-01-07T05:13:46;4.80;;;4.00;;
13345;SDS011;6742;48.036;15.780;2024-01-07T05:16:19;4.87;;;4.10;;
13345;SDS011;6742;48.036;15.780;2024-01-07T05:18:46;6.60;;;4.10;;
13345;SDS011;6742;48.036;15.780;2024-01-07T05:21:14;5.70;;;4.63;;
13345;SDS011;6742;48.036;15.780;2024-01-07T05:23:41;5.43;;;4.23;;
13345;SDS011;6742;48.036;15.780;2024-01-07T05:26:08;5.63;;;4.47;;
13345;SDS011;6742;48.036;15.780;2024-01-07T05:28:36;5.03;;;4.00;;
13345;SDS011;6742;48.036;15.780;2024-01-07T05:31:03;4.77;;;3.80;;
13345;SDS011;6742;48.036;15.780;2024-01-07T05:33:31;5.23;;;4.20;;
13345;SDS011;6742;48.036;15.780;2024-01-07T05:36:01;5.50;;;4.50;;
13345;SDS011;6742;48.036;15.780;2024-01-07T05:38:30;4.83;;;4.33;;
13345;SDS011;6742;48.036;15.780;2024-01-07T05:40:57;5.67;;;4.60;;
13345;SDS011;6742;48.036;15.780;2024-01-07T05:43:23;5.90;;;4.30;;
13345;SDS011;6742;48.036;15.780;2024-01-07T05:45:50;6.83;;;5.10;;
13345;SDS011;6742;48.036;15.780;2024-01-07T05:48:17;11.97;;;8.40;;
13345;SDS011;6742;48.036;15.780;2024-01-07T05:50:46;6.87;;;5.30;;
13345;SDS011;6742;48.036;15.780;2024-01-07T05:53:13;5.87;;;4.90;;
13345;SDS011;6742;48.036;15.780;2024-01-07T05:55:40;5.60;;;4.80;;
13345;SDS011;6742;48.036;15.780;2024-01-07T05:58:07;5.77;;;4.27;;
13345;SDS011;6742;48.036;15.780;2024-01-07T06:00:34;5.50;;;4.23;;
13345;SDS011;6742;48.036;15.780;2024-01-07T06:03:01;5.07;;;4.57;;
13345;SDS011;6742;48.036;15.780;2024-01-07T06:05:29;4.50;;;4.10;;
13345;SDS011;6742;48.036;15.780;2024-01-07T06:07:57;4.27;;;3.87;;
13345;SDS011;6742;48.036;15.780;2024-01-07T06:10:24;4.53;;;4.13;;
13345;SDS011;6742;48.036;15.780;2024-01-07T06:12:51;4.77;;;4.13;;
13345;SDS011;6742;48.036;15.780;2024-01-07T06:15:18;6.07;;;4.20;;
13345;SDS011;6742;48.036;15.780;2024-01-07T06:17:45;6.20;;;5.23;;
13345;SDS011;6742;48.036;15.780;2024-01-07T06:20:14;6.43;;;5.50;;
13345;SDS011;6742;48.036;15.780;2024-01-07T06:22:41;4.77;;;4.10;;
13345;SDS011;6742;48.036;15.780;2024-01-07T06:25:09;5.50;;;4.40;;
13345;SDS011;6742;48.036;15.780;2024-01-07T06:27:37;5.57;;;4.57;;
13345;SDS011;6742;48.036;15.780;2024-01-07T06:30:05;4.93;;;4.43;;
13345;SDS011;6742;48.036;15.780;2024-01-07T06:32:33;7.00;;;4.87;;
13345;SDS011;6742;48.036;15.780;2024-01-07T06:35:00;5.77;;;4.30;;
13345;SDS011;6742;48.036;15.780;2024-01-07T06:37:28;5.17;;;4.20;;
13345;SDS011;6742;48.036;15.780;2024-01-07T06:39:55;4.50;;;4.10;;
13345;SDS011;6742;48.036;15.780;2024-01-07T06:42:24;5.70;;;4.70;;
13345;SDS011;6742;48.036;15.780;2024-01-07T06:44:51;4.77;;;4.03;;
13345;SDS011;6742;48.036;15.780;2024-01-07T06:47:18;4.93;;;4.10;;
13345;SDS011;6742;48.036;15.780;2024-01-07T06:49:45;5.23;;;4.27;;
13345;SDS011;6742;48.036;15.780;2024-01-07T06:52:12;5.30;;;4.27;;
13345;SDS011;6742;48.036;15.780;2024-01-07T06:54:39;6.07;;;4.47;;
13345;SDS011;6742;48.036;15.780;2024-01-07T06:57:06;5.37;;;4.40;;
13345;SDS011;6742;48.036;15.780;2024-01-07T06:59:34;5.00;;;4.30;;
13345;SDS011;6742;48.036;15.780;2024-01-07T07:02:01;5.87;;;4.53;;
13345;SDS011;6742;48.036;15.780;2024-01-07T07:04:28;4.90;;;4.30;;
13345;SDS011;6742;48.036;15.780;2024-01-07T07:06:55;4.87;;;4.23;;
13345;SDS011;6742;48.036;15.780;2024-01-07T07:09:23;5.17;;;4.27;;
13345;SDS011;6742;48.036;15.780;2024-01-07T07:11:50;5.87;;;4.80;;
13345;SDS011;6742;48.036;15.780;2024-01-07T07:14:16;5.37;;;4.67;;
13345;SDS011;6742;48.036;15.780;2024-01-07T07:16:45;5.03;;;4.40;;
13345;SDS011;6742;48.036;15.780;2024-01-07T07:19:12;6.33;;;4.90;;
13345;SDS011;6742;48.036;15.780;2024-01-07T07:21:40;5.73;;;4.70;;
13345;SDS011;6742;48.036;15.780;2024-01-07T07:24:07;6.13;;;4.57;;
13345;SDS011;6742;48.036;15.780;2024-01-07T07:26:34;5.70;;;4.47;;
13345;SDS011;6742;48.036;15.780;2024-01-07T07:29:05;7.83;;;5.70;;
13345;SDS011;6742;48.036;15.780;2024-01-07T07:31:34;5.03;;;4.47;;
13345;SDS011;6742;48.036;15.780;2024-01-07T07:34:03;6.00;;;5.07;;
13345;SDS011;6742;48.036;15.780;2024-01-07T07:36:30;7.13;;;5.57;;
13345;SDS011;6742;48.036;15.780;2024-01-07T07:38:57;6.50;;;5.27;;
13345;SDS011;6742;48.036;15.780;2024-01-07T07:41:24;6.30;;;5.43;;
13345;SDS011;6742;48.036;15.780;2024-01-07T07:43:51;8.37;;;5.60;;
13345;SDS011;6742;48.036;15.780;2024-01-07T07:46:18;6.67;;;4.83;;
13345;SDS011;6742;48.036;15.780;2024-01-07T07:48:44;6.47;;;4.87;;
13345;SDS011;6742;48.036;15.780;2024-01-07T07:51:13;6.17;;;4.90;;
13345;SDS011;6742;48.036;15.780;2024-01-07T07:53:40;6.90;;;5.07;;
13345;SDS011;6742;48.036;15.780;2024-01-07T07:56:08;6.03;;;4.70;;
13345;SDS011;6742;48.036;15.780;2024-01-07T07:58:38;4.67;;;4.23;;
13345;SDS011;6742;48.036;15.780;2024-01-07T08:01:05;5.33;;;4.47;;
13345;SDS011;6742;48.036;15.780;2024-01-07T08:03:32;5.20;;;4.70;;
13345;SDS011;6742;48.036;15.780;2024-01-07T08:05:59;5.10;;;4.30;;
13345;SDS011;6742;48.036;15.780;2024-01-07T08:08:28;4.70;;;4.20;;
13345;SDS011;6742;48.036;15.780;2024-01-07T08:10:55;4.80;;;4.10;;
13345;SDS011;6742;48.036;15.780;2024-01-07T08:13:22;5.20;;;3.97;;
13345;SDS011;6742;48.036;15.780;2024-01-07T08:15:48;5.27;;;4.60;;
13345;SDS011;6742;48.036;15.780;2024-01-07T08:18:15;5.50;;;4.90;;
13345;SDS011;6742;48.036;15.780;2024-01-07T08:20:42;5.33;;;4.83;;
13345;SDS011;6742;48.036;15.780;2024-01-07T08:23:09;5.70;;;5.00;;
13345;SDS011;6742;48.036;15.780;2024-01-07T08:25:38;5.53;;;4.43;;
13345;SDS011;6742;48.036;15.780;2024-01-07T08:28:05;5.70;;;4.60;;
13345;SDS011;6742;48.036;15.780;2024-01-07T08:30:32;6.20;;;4.60;;
13345;SDS011;6742;48.036;15.780;2024-01-07T08:32:59;5.17;;;4.67;;
13345;SDS011;6742;48.036;15.780;2024-01-07T08:35:26;5.60;;;4.60;;
13345;SDS011;6742;48.036;15.780;2024-01-07T08:37:53;6.03;;;4.60;;
13345;SDS011;6742;48.036;15.780;2024-01-07T08:40:20;5.03;;;4.53;;
13345;SDS011;6742;48.036;15.780;2024-01-07T08:42:48;5.70;;;4.60;;
13345;SDS011;6742;48.036;15.780;2024-01-07T08:45:15;5.50;;;4.57;;
13345;SDS011;6742;48.036;15.780;2024-01-07T08:47:42;4.97;;;4.20;;
13345;SDS011;6742;48.036;15.780;2024-01-07T08:50:09;5.50;;;4.30;;
13345;SDS011;6742;48.036;15.780;2024-01-07T08:52:36;4.97;;;4.33;;
13345;SDS011;6742;48.036;15.780;2024-01-07T08:55:03;5.17;;;4.20;;
13345;SDS011;6742;48.036;15.780;2024-01-07T08:57:32;5.23;;;4.27;;
13345;SDS011;6742;48.036;15.780;2024-01-07T09:00:01;5.97;;;4.20;;
13345;SDS011;6742;48.036;15.780;2024-01-07T09:02:29;5.77;;;4.47;;
13345;SDS011;6742;48.036;15.780;2024-01-07T09:04:56;6.17;;;4.63;;
13345;SDS011;6742;48.036;15.780;2024-01-07T09:07:24;4.67;;;3.90;;
13345;SDS011;6742;48.036;15.780;2024-01-07T09:09:51;4.13;;;3.73;;
13345;SDS011;6742;48.036;15.780;2024-01-07T09:12:20;4.80;;;4.13;;
13345;SDS011;6742;48.036;15.780;2024-01-07T09:14:47;7.83;;;6.27;;
13345;SDS011;6742;48.036;15.780;2024-01-07T09:17:16;5.60;;;4.87;;
13345;SDS011;6742;48.036;15.780;2024-01-07T09:19:43;4.77;;;4.27;;
13345;SDS011;6742;48.036;15.780;2024-01-07T09:22:11;5.00;;;4.50;;
13345;SDS011;6742;48.036;15.780;2024-01-07T09:24:38;5.03;;;4.53;;
13345;SDS011;6742;48.036;15.780;2024-01-07T09:27:04;5.80;;;4.87;;
13345;SDS011;6742;48.036;15.780;2024-01-07T09:29:31;7.73;;;6.23;;
13345;SDS011;6742;48.036;15.780;2024-01-07T09:31:58;5.77;;;4.57;;
13345;SDS011;6742;48.036;15.780;2024-01-07T09:34:27;5.70;;;4.77;;
13345;SDS011;6742;48.036;15.780;2024-01-07T09:36:54;6.90;;;6.20;;
13345;SDS011;6742;48.036;15.780;2024-01-07T09:39:20;6.53;;;5.90;;
13345;SDS011;6742;48.036;15.780;2024-01-07T09:41:47;6.90;;;6.23;;
13345;SDS011;6742;48.036;15.780;2024-01-07T09:44:14;7.43;;;5.70;;
13345;SDS011;6742;48.036;15.780;2024-01-07T09:46:42;5.57;;;4.90;;
13345;SDS011;6742;48.036;15.780;2024-01-07T09:49:12;6.07;;;4.97;;
13345;SDS011;6742;48.036;15.780;2024-01-07T09:51:41;6.80;;;4.90;;
13345;SDS011;6742;48.036;15.780;2024-01-07T09:54:11;6.13;;;5.03;;
13345;SDS011;6742;48.036;15.780;2024-01-07T09:56:42;6.10;;;5.43;;
13345;SDS011;6742;48.036;15.780;2024-01-07T09:59:15;6.10;;;5.50;;
13345;SDS011;6742;48.036;15.780;2024-01-07T10:01:43;6.00;;;5.23;;
13345;SDS011;6742;48.036;15.780;2024-01-07T10:04:12;7.43;;;5.80;;
13345;SDS011;6742;48.036;15.780;2024-01-07T10:06:40;6.60;;;5.30;;
13345;SDS011;6742;48.036;15.780;2024-01-07T10:09:07;6.43;;;5.33;;
13345;SDS011;6742;48.036;15.780;2024-01-07T10:11:34;6.40;;;5.33;;
13345;SDS011;6742;48.036;15.780;2024-01-07T10:14:01;6.20;;;5.60;;
13345;SDS011;6742;48.036;15.780;2024-01-07T10:16:28;7.20;;;5.77;;
13345;SDS011;6742;48.036;15.780;2024-01-07T10:18:57;6.13;;;5.53;;
13345;SDS011;6742;48.036;15.780;2024-01-07T10:21:24;5.53;;;4.93;;
13345;SDS011;6742;48.036;15.780;2024-01-07T10:23:53;6.77;;;5.40;;
13345;SDS011;6742;48.036;15.780;2024-01-07T10:26:34;7.03;;;5.40;;
13345;SDS011;6742;48.036;15.780;2024-01-07T10:29:01;7.47;;;5.40;;
13345;SDS011;6742;48.036;15.780;2024-01-07T10:31:28;6.93;;;5.47;;
13345;SDS011;6742;48.036;15.780;2024-01-07T10:33:56;5.03;;;4.53;;
13345;SDS011;6742;48.036;15.780;2024-01-07T10:36:23;5.90;;;5.30;;
13345;SDS011;6742;48.036;15.780;2024-01-07T10:38:50;5.70;;;4.67;;
13345;SDS011;6742;48.036;15.780;2024-01-07T10:41:19;6.40;;;5.23;;
13345;SDS011;6742;48.036;15.780;2024-01-07T10:43:47;5.43;;;4.80;;
13345;SDS011;6742;48.036;15.780;2024-01-07T10:46:14;5.90;;;4.30;;
13345;SDS011;6742;48.036;15.780;2024-01-07T10:48:43;5.43;;;4.73;;
13345;SDS011;6742;48.036;15.780;2024-01-07T10:51:25;5.30;;;4.50;;
13345;SDS011;6742;48.036;15.780;2024-01-07T10:53:56;6.23;;;4.80;;
13345;SDS011;6742;48.036;15.780;2024-01-07T10:56:25;5.80;;;4.87;;
13345;SDS011;6742;48.036;15.780;2024-01-07T10:58:59;7.07;;;5.13;;
13345;SDS011;6742;48.036;15.780;2024-01-07T11:01:26;6.23;;;5.37;;
13345;SDS011;6742;48.036;15.780;2024-01-07T11:03:55;5.67;;;5.07;;
13345;SDS011;6742;48.036;15.780;2024-01-07T11:06:27;5.97;;;4.77;;
13345;SDS011;6742;48.036;15.780;2024-01-07T11:09:06;5.97;;;4.83;;
13345;SDS011;6742;48.036;15.780;2024-01-07T11:11:44;6.60;;;5.13;;
13345;SDS011;6742;48.036;15.780;2024-01-07T11:17:00;5.77;;;4.47;;
13345;SDS011;6742;48.036;15.780;2024-01-07T11:19:28;5.47;;;4.80;;
13345;SDS011;6742;48.036;15.780;2024-01-07T11:22:10;6.10;;;4.53;;
13345;SDS011;6742;48.036;15.780;2024-01-07T11:24:50;7.77;;;6.17;;
13345;SDS011;6742;48.036;15.780;2024-01-07T11:27:17;7.77;;;5.03;;
13345;SDS011;6742;48.036;15.780;2024-01-07T11:29:44;6.63;;;5.03;;
13345;SDS011;6742;48.036;15.780;2024-01-07T11:32:18;6.43;;;5.17;;
13345;SDS011;6742;48.036;15.780;2024-01-07T11:34:47;6.53;;;4.73;;
13345;SDS011;6742;48.036;15.780;2024-01-07T11:37:17;6.60;;;4.50;;
13345;SDS011;6742;48.036;15.780;2024-01-07T11:39:45;5.97;;;4.37;;
13345;SDS011;6742;48.036;15.780;2024-01-07T11:42:14;6.30;;;4.80;;
13345;SDS011;6742;48.036;15.780;2024-01-07T11:44:45;6.10;;;4.90;;
13345;SDS011;6742;48.036;15.780;2024-01-07T11:47:13;5.77;;;4.30;;
13345;SDS011;6742;48.036;15.780;2024-01-07T11:49:40;5.47;;;4.47;;
13345;SDS011;6742;48.036;15.780;2024-01-07T11:52:08;6.07;;;4.70;;
13345;SDS011;6742;48.036;15.780;2024-01-07T11:54:35;6.70;;;4.93;;
13345;SDS011;6742;48.036;15.780;2024-01-07T11:57:03;5.83;;;4.23;;
13345;SDS011;6742;48.036;15.780;2024-01-07T11:59:32;5.93;;;4.80;;
13345;SDS011;6742;48.036;15.780;2024-01-07T12:02:00;6.97;;;4.63;;
13345;SDS011;6742;48.036;15.780;2024-01-07T12:04:29;5.07;;;4.43;;
13345;SDS011;6742;48.036;15.780;2024-01-07T12:06:56;4.83;;;4.33;;
13345;SDS011;6742;48.036;15.780;2024-01-07T12:09:23;5.40;;;4.27;;
13345;SDS011;6742;48.036;15.780;2024-01-07T12:11:50;6.30;;;4.60;;
13345;SDS011;6742;48.036;15.780;2024-01-07T12:14:18;6.17;;;4.27;;
13345;SDS011;6742;48.036;15.780;2024-01-07T12:16:47;5.23;;;4.37;;
13345;SDS011;6742;48.036;15.780;2024-01-07T12:19:14;6.10;;;4.60;;
13345;SDS011;6742;48.036;15.780;2024-01-07T12:21:41;6.60;;;4.37;;
13345;SDS011;6742;48.036;15.780;2024-01-07T12:24:08;5.63;;;4.47;;
13345;SDS011;6742;48.036;15.780;2024-01-07T12:26:35;5.60;;;4.80;;
13345;SDS011;6742;48.036;15.780;2024-01-07T12:29:02;5.97;;;4.37;;
13345;SDS011;6742;48.036;15.780;2024-01-07T12:31:32;5.30;;;4.43;;
13345;SDS011;6742;48.036;15.780;2024-01-07T12:34:00;4.83;;;4.33;;
13345;SDS011;6742;48.036;15.780;2024-01-07T12:36:29;5.83;;;4.57;;
13345;SDS011;6742;48.036;15.780;2024-01-07T12:38:56;6.50;;;4.47;;
13345;SDS011;6742;48.036;15.780;2024-01-07T12:41:23;6.83;;;4.67;;
13345;SDS011;6742;48.036;15.780;2024-01-07T12:43:50;10.33;;;8.63;;
13345;SDS011;6742;48.036;15.780;2024-01-07T12:46:17;10.43;;;7.70;;
13345;SDS011;6742;48.036;15.780;2024-01-07T12:48:44;5.80;;;4.97;;
13345;SDS011;6742;48.036;15.780;2024-01-07T12:51:13;5.60;;;4.70;;
13345;SDS011;6742;48.036;15.780;2024-01-07T12:53:40;5.57;;;4.50;;
13345;SDS011;6742;48.036;15.780;2024-01-07T12:56:07;6.10;;;4.57;;
13345;SDS011;6742;48.036;15.780;2024-01-07T12:58:34;5.80;;;4.73;;
13345;SDS011;6742;48.036;15.780;2024-01-07T13:01:01;6.67;;;4.73;;
13345;SDS011;6742;48.036;15.780;2024-01-07T13:03:28;5.90;;;4.87;;
13345;SDS011;6742;48.036;15.780;2024-01-07T13:05:55;5.40;;;4.70;;
13345;SDS011;6742;48.036;15.780;2024-01-07T13:08:23;5.70;;;4.67;;
13345;SDS011;6742;48.036;15.780;2024-01-07T13:10:51;7.07;;;4.93;;
13345;SDS011;6742;48.036;15.780;2024-01-07T13:13:18;6.37;;;5.10;;
13345;SDS011;6742;48.036;15.780;2024-01-07T13:15:45;6.17;;;4.60;;
13345;SDS011;6742;48.036;15.780;2024-01-07T13:18:13;5.50;;;4.63;;
13345;SDS011;6742;48.036;15.780;2024-01-07T13:20:40;6.80;;;4.87;;
13345;SDS011;6742;48.036;15.780;2024-01-07T13:23:07;6.30;;;4.83;;
13345;SDS011;6742;48.036;15.780;2024-01-07T13:25:35;6.10;;;4.90;;
13345;SDS011;6742;48.036;15.780;2024-01-07T13:28:02;5.53;;;4.97;;
13345;SDS011;6742;48.036;15.780;2024-01-07T13:30:30;5.63;;;4.53;;
13345;SDS011;6742;48.036;15.780;2024-01-07T13:32:57;8.57;;;6.23;;
13345;SDS011;6742;48.036;15.780;2024-01-07T13:35:24;5.87;;;4.80;;
13345;SDS011;6742;48.036;15.780;2024-01-07T13:37:51;7.27;;;5.27;;
13345;SDS011;6742;48.036;15.780;2024-01-07T13:40:19;6.27;;;5.10;;
13345;SDS011;6742;48.036;15.780;2024-01-07T13:42:48;5.73;;;4.63;;
13345;SDS011;6742;48.036;15.780;2024-01-07T13:45:16;5.87;;;4.77;;
13345;SDS011;6742;48.036;15.780;2024-01-07T13:47:45;5.83;;;4.63;;
13345;SDS011;6742;48.036;15.780;2024-01-07T13:50:13;5.83;;;4.70;;
13345;SDS011;6742;48.036;15.780;2024-01-07T13:52:40;6.73;;;5.07;;
13345;SDS011;6742;48.036;15.780;2024-01-07T13:55:07;5.60;;;4.67;;
13345;SDS011;6742;48.036;15.780;2024-01-07T13:57:35;6.33;;;5.20;;
13345;SDS011;6742;48.036;15.780;2024-01-07T14:00:04;10.97;;;8.57;;
13345;SDS011;6742;48.036;15.780;2024-01-07T14:02:34;7.03;;;5.50;;
13345;SDS011;6742;48.036;15.780;2024-01-07T14:05:03;7.50;;;5.07;;
13345;SDS011;6742;48.036;15.780;2024-01-07T14:07:31;7.67;;;5.43;;
13345;SDS011;6742;48.036;15.780;2024-01-07T14:09:59;6.27;;;5.13;;
13345;SDS011;6742;48.036;15.780;2024-01-07T14:12:28;7.27;;;5.20;;
13345;SDS011;6742;48.036;15.780;2024-01-07T14:14:55;5.97;;;4.93;;
13345;SDS011;6742;48.036;15.780;2024-01-07T14:17:23;6.67;;;4.87;;
13345;SDS011;6742;48.036;15.780;2024-01-07T14:19:50;7.03;;;5.60;;
13345;SDS011;6742;48.036;15.780;2024-01-07T14:22:18;6.57;;;5.23;;
13345;SDS011;6742;48.036;15.780;2024-01-07T14:24:45;6.83;;;5.73;;
13345;SDS011;6742;48.036;15.780;2024-01-07T14:27:13;6.30;;;5.20;;
13345;SDS011;6742;48.036;15.780;2024-01-07T14:29:40;6.57;;;5.43;;
13345;SDS011;6742;48.036;15.780;2024-01-07T14:32:07;7.43;;;5.70;;
13345;SDS011;6742;48.036;15.780;2024-01-07T14:34:38;7.73;;;5.60;;
13345;SDS011;6742;48.036;15.780;2024-01-07T14:37:06;7.60;;;5.77;;
13345;SDS011;6742;48.036;15.780;2024-01-07T14:39:34;8.77;;;6.73;;
13345;SDS011;6742;48.036;15.780;2024-01-07T14:42:01;9.50;;;6.10;;
13345;SDS011;6742;48.036;15.780;2024-01-07T14:44:28;9.50;;;6.43;;
13345;SDS011;6742;48.036;15.780;2024-01-07T14:46:56;9.27;;;7.57;;
13345;SDS011;6742;48.036;15.780;2024-01-07T14:49:23;7.90;;;7.07;;
13345;SDS011;6742;48.036;15.780;2024-01-07T14:51:51;7.67;;;6.30;;
13345;SDS011;6742;48.036;15.780;2024-01-07T14:54:18;8.10;;;6.20;;